sensor_id;sensor_type;location;lat;lon;timestamp;P1;durP1;ratioP1;P2;durP2;ratioP2
57233;SDS011;43090;52.604;13.318;2022-07-23T00:00:38;9.20;;;5.07;;
57233;SDS011;43090;52.604;13.318;2022-07-23T00:03:05;10.48;;;5.63;;
57233;SDS011;43090;52.604;13.318;2022-07-23T00:05:32;7.95;;;5.32;;
57233;SDS011;43090;52.604;13.318;2022-07-23T00:08:00;9.60;;;5.65;;
57233;SDS011;43090;52.604;13.318;2022-07-23T00:10:27;8.48;;;5.47;;
57233;SDS011;43090;52.604;13.318;2022-07-23T00:12:53;7.93;;;5.63;;
57233;SDS011;43090;52.604;13.318;2022-07-23T00:15:20;9.57;;;5.55;;
57233;SDS011;43090;52.604;13.318;2022-07-23T00:17:47;13.00;;;5.78;;
57233;SDS011;43090;52.604;13.318;2022-07-23T00:20:13;10.15;;;5.18;;
57233;SDS011;43090;52.604;13.318;2022-07-23T00:22:47;15.63;;;6.15;;
57233;SDS011;43090;52.604;13.318;2022-07-23T00:25:14;13.07;;;6.30;;
57233;SDS011;43090;52.604;13.318;2022-07-23T00:27:58;12.90;;;6.80;;
57233;SDS011;43090;52.604;13.318;2022-07-23T00:30:25;14.98;;;6.05;;
57233;SDS011;43090;52.604;13.318;2022-07-23T00:32:53;10.77;;;5.32;;
57233;SDS011;43090;52.604;13.318;2022-07-23T00:35:24;9.35;;;5.30;;
57233;SDS011;43090;52.604;13.318;2022-07-23T00:37:51;10.85;;;5.72;;
57233;SDS011;43090;52.604;13.318;2022-07-23T00:40:18;9.35;;;5.28;;
57233;SDS011;43090;52.604;13.318;2022-07-23T00:42:44;8.70;;;5.68;;
57233;SDS011;43090;52.604;13.318;2022-07-23T00:45:11;10.20;;;6.10;;
57233;SDS011;43090;52.604;13.318;2022-07-23T00:47:37;8.40;;;6.00;;
57233;SDS011;43090;52.604;13.318;2022-07-23T00:50:04;11.13;;;6.10;;
57233;SDS011;43090;52.604;13.318;2022-07-23T00:52:32;9.82;;;6.00;;
57233;SDS011;43090;52.604;13.318;2022-07-23T00:54:59;9.35;;;5.55;;
57233;SDS011;43090;52.604;13.318;2022-07-23T00:57:26;11.95;;;5.95;;
57233;SDS011;43090;52.604;13.318;2022-07-23T00:59:54;8.45;;;6.07;;
57233;SDS011;43090;52.604;13.318;2022-07-23T01:04:47;7.57;;;5.35;;
57233;SDS011;43090;52.604;13.318;2022-07-23T01:07:14;11.25;;;5.32;;
57233;SDS011;43090;52.604;13.318;2022-07-23T01:09:42;10.02;;;6.00;;
57233;SDS011;43090;52.604;13.318;2022-07-23T01:12:10;9.63;;;6.05;;
57233;SDS011;43090;52.604;13.318;2022-07-23T01:17:03;10.25;;;6.40;;
57233;SDS011;43090;52.604;13.318;2022-07-23T01:19:30;8.80;;;5.32;;
57233;SDS011;43090;52.604;13.318;2022-07-23T01:21:57;8.52;;;6.07;;
57233;SDS011;43090;52.604;13.318;2022-07-23T01:24:27;11.98;;;6.07;;
57233;SDS011;43090;52.604;13.318;2022-07-23T01:26:54;12.32;;;5.93;;
57233;SDS011;43090;52.604;13.318;2022-07-23T01:31:47;10.18;;;6.13;;
57233;SDS011;43090;52.604;13.318;2022-07-23T01:34:14;11.57;;;5.97;;
57233;SDS011;43090;52.604;13.318;2022-07-23T01:36:40;9.25;;;5.65;;
57233;SDS011;43090;52.604;13.318;2022-07-23T01:39:07;9.23;;;6.18;;
57233;SDS011;43090;52.604;13.318;2022-07-23T01:44:01;11.20;;;6.00;;
57233;SDS011;43090;52.604;13.318;2022-07-23T01:46:28;7.53;;;5.63;;
57233;SDS011;43090;52.604;13.318;2022-07-23T01:51:21;23.02;;;5.93;;
57233;SDS011;43090;52.604;13.318;2022-07-23T01:53:47;17.48;;;6.63;;
57233;SDS011;43090;52.604;13.318;2022-07-23T01:56:14;11.63;;;5.88;;
57233;SDS011;43090;52.604;13.318;2022-07-23T01:58:41;17.35;;;6.65;;
57233;SDS011;43090;52.604;13.318;2022-07-23T02:01:08;20.23;;;6.97;;
57233;SDS011;43090;52.604;13.318;2022-07-23T02:03:35;10.07;;;6.03;;
57233;SDS011;43090;52.604;13.318;2022-07-23T02:06:01;11.55;;;6.43;;
57233;SDS011;43090;52.604;13.318;2022-07-23T02:08:28;9.68;;;6.65;;
57233;SDS011;43090;52.604;13.318;2022-07-23T02:10:54;7.45;;;5.88;;
57233;SDS011;43090;52.604;13.318;2022-07-23T02:13:21;10.45;;;6.72;;
57233;SDS011;43090;52.604;13.318;2022-07-23T02:15:48;10.52;;;6.22;;
57233;SDS011;43090;52.604;13.318;2022-07-23T02:18:15;10.13;;;5.90;;
57233;SDS011;43090;52.604;13.318;2022-07-23T02:20:41;13.15;;;6.35;;
57233;SDS011;43090;52.604;13.318;2022-07-23T02:25:35;15.82;;;6.70;;
57233;SDS011;43090;52.604;13.318;2022-07-23T02:28:01;9.73;;;6.00;;
57233;SDS011;43090;52.604;13.318;2022-07-23T02:30:28;18.42;;;6.72;;
57233;SDS011;43090;52.604;13.318;2022-07-23T02:32:55;12.18;;;6.40;;
57233;SDS011;43090;52.604;13.318;2022-07-23T02:35:21;11.05;;;7.10;;
57233;SDS011;43090;52.604;13.318;2022-07-23T02:37:48;12.60;;;6.68;;
57233;SDS011;43090;52.604;13.318;2022-07-23T02:40:16;10.50;;;5.93;;
57233;SDS011;43090;52.604;13.318;2022-07-23T02:42:44;10.82;;;6.60;;
57233;SDS011;43090;52.604;13.318;2022-07-23T02:45:10;12.40;;;6.63;;
57233;SDS011;43090;52.604;13.318;2022-07-23T02:47:37;11.05;;;5.78;;
57233;SDS011;43090;52.604;13.318;2022-07-23T02:50:03;13.90;;;5.78;;
57233;SDS011;43090;52.604;13.318;2022-07-23T02:52:31;10.05;;;5.82;;
57233;SDS011;43090;52.604;13.318;2022-07-23T02:54:58;11.98;;;5.65;;
57233;SDS011;43090;52.604;13.318;2022-07-23T02:57:24;15.05;;;5.47;;
57233;SDS011;43090;52.604;13.318;2022-07-23T02:59:51;10.52;;;5.43;;
57233;SDS011;43090;52.604;13.318;2022-07-23T03:02:17;9.45;;;5.40;;
57233;SDS011;43090;52.604;13.318;2022-07-23T03:04:44;13.07;;;4.72;;
57233;SDS011;43090;52.604;13.318;2022-07-23T03:07:10;12.25;;;4.75;;
57233;SDS011;43090;52.604;13.318;2022-07-23T03:09:37;11.73;;;5.15;;
57233;SDS011;43090;52.604;13.318;2022-07-23T03:12:03;10.52;;;5.13;;
57233;SDS011;43090;52.604;13.318;2022-07-23T03:14:38;10.20;;;4.82;;
57233;SDS011;43090;52.604;13.318;2022-07-23T03:17:05;10.23;;;4.05;;
57233;SDS011;43090;52.604;13.318;2022-07-23T03:19:31;8.52;;;3.75;;
57233;SDS011;43090;52.604;13.318;2022-07-23T03:21:58;9.35;;;4.43;;
57233;SDS011;43090;52.604;13.318;2022-07-23T03:27:17;7.70;;;4.40;;
57233;SDS011;43090;52.604;13.318;2022-07-23T03:29:44;11.73;;;3.70;;
57233;SDS011;43090;52.604;13.318;2022-07-23T03:32:10;5.93;;;3.70;;
57233;SDS011;43090;52.604;13.318;2022-07-23T03:34:37;9.57;;;3.40;;
57233;SDS011;43090;52.604;13.318;2022-07-23T03:37:05;12.23;;;3.33;;
57233;SDS011;43090;52.604;13.318;2022-07-23T03:39:32;7.95;;;3.65;;
57233;SDS011;43090;52.604;13.318;2022-07-23T03:41:59;7.97;;;3.60;;
57233;SDS011;43090;52.604;13.318;2022-07-23T03:44:25;8.15;;;3.78;;
57233;SDS011;43090;52.604;13.318;2022-07-23T03:46:55;10.55;;;3.47;;
57233;SDS011;43090;52.604;13.318;2022-07-23T03:49:21;8.30;;;3.70;;
57233;SDS011;43090;52.604;13.318;2022-07-23T03:51:48;10.02;;;3.22;;
57233;SDS011;43090;52.604;13.318;2022-07-23T03:54:15;8.93;;;3.17;;
57233;SDS011;43090;52.604;13.318;2022-07-23T03:59:10;6.68;;;2.83;;
57233;SDS011;43090;52.604;13.318;2022-07-23T04:01:36;8.68;;;2.75;;
57233;SDS011;43090;52.604;13.318;2022-07-23T04:04:03;11.25;;;3.17;;
57233;SDS011;43090;52.604;13.318;2022-07-23T04:06:30;4.47;;;2.97;;
57233;SDS011;43090;52.604;13.318;2022-07-23T04:08:56;13.27;;;3.35;;
57233;SDS011;43090;52.604;13.318;2022-07-23T04:11:24;9.85;;;2.67;;
57233;SDS011;43090;52.604;13.318;2022-07-23T04:13:50;10.35;;;2.92;;
57233;SDS011;43090;52.604;13.318;2022-07-23T04:16:17;10.27;;;2.80;;
57233;SDS011;43090;52.604;13.318;2022-07-23T04:18:43;6.03;;;2.50;;
57233;SDS011;43090;52.604;13.318;2022-07-23T04:21:10;8.02;;;2.60;;
57233;SDS011;43090;52.604;13.318;2022-07-23T04:23:36;11.77;;;3.72;;
57233;SDS011;43090;52.604;13.318;2022-07-23T04:26:03;8.80;;;2.47;;
57233;SDS011;43090;52.604;13.318;2022-07-23T04:28:29;13.70;;;3.03;;
57233;SDS011;43090;52.604;13.318;2022-07-23T04:30:56;8.98;;;3.28;;
57233;SDS011;43090;52.604;13.318;2022-07-23T04:33:23;9.00;;;3.38;;
57233;SDS011;43090;52.604;13.318;2022-07-23T04:35:50;10.48;;;3.63;;
57233;SDS011;43090;52.604;13.318;2022-07-23T04:38:18;9.27;;;3.53;;
57233;SDS011;43090;52.604;13.318;2022-07-23T04:40:45;13.63;;;3.65;;
57233;SDS011;43090;52.604;13.318;2022-07-23T04:43:11;7.18;;;3.30;;
57233;SDS011;43090;52.604;13.318;2022-07-23T04:45:38;15.07;;;3.67;;
57233;SDS011;43090;52.604;13.318;2022-07-23T04:48:05;10.27;;;4.28;;
57233;SDS011;43090;52.604;13.318;2022-07-23T04:50:31;8.32;;;3.80;;
57233;SDS011;43090;52.604;13.318;2022-07-23T04:52:58;9.55;;;4.07;;
57233;SDS011;43090;52.604;13.318;2022-07-23T04:55:24;7.95;;;4.03;;
57233;SDS011;43090;52.604;13.318;2022-07-23T04:57:51;7.90;;;3.92;;
57233;SDS011;43090;52.604;13.318;2022-07-23T05:00:17;7.28;;;3.25;;
57233;SDS011;43090;52.604;13.318;2022-07-23T05:02:44;11.00;;;3.83;;
57233;SDS011;43090;52.604;13.318;2022-07-23T05:05:11;6.75;;;3.25;;
57233;SDS011;43090;52.604;13.318;2022-07-23T05:07:37;8.93;;;3.72;;
57233;SDS011;43090;52.604;13.318;2022-07-23T05:10:04;9.98;;;3.97;;
57233;SDS011;43090;52.604;13.318;2022-07-23T05:12:30;5.20;;;3.35;;
57233;SDS011;43090;52.604;13.318;2022-07-23T05:14:57;11.15;;;3.60;;
57233;SDS011;43090;52.604;13.318;2022-07-23T05:17:23;9.07;;;3.65;;
57233;SDS011;43090;52.604;13.318;2022-07-23T05:19:50;11.48;;;3.80;;
57233;SDS011;43090;52.604;13.318;2022-07-23T05:22:23;13.18;;;4.13;;
57233;SDS011;43090;52.604;13.318;2022-07-23T05:24:49;12.88;;;4.13;;
57233;SDS011;43090;52.604;13.318;2022-07-23T05:27:34;13.32;;;4.05;;
57233;SDS011;43090;52.604;13.318;2022-07-23T05:30:07;8.50;;;3.88;;
57233;SDS011;43090;52.604;13.318;2022-07-23T05:32:36;10.07;;;4.20;;
57233;SDS011;43090;52.604;13.318;2022-07-23T05:35:06;8.52;;;4.03;;
57233;SDS011;43090;52.604;13.318;2022-07-23T05:37:33;7.20;;;3.63;;
57233;SDS011;43090;52.604;13.318;2022-07-23T05:40:09;10.25;;;3.58;;
57233;SDS011;43090;52.604;13.318;2022-07-23T05:42:37;15.38;;;4.40;;
57233;SDS011;43090;52.604;13.318;2022-07-23T05:45:04;11.02;;;4.10;;
57233;SDS011;43090;52.604;13.318;2022-07-23T05:47:44;8.35;;;3.90;;
57233;SDS011;43090;52.604;13.318;2022-07-23T05:50:15;10.07;;;3.75;;
57233;SDS011;43090;52.604;13.318;2022-07-23T05:52:42;6.55;;;3.70;;
57233;SDS011;43090;52.604;13.318;2022-07-23T05:57:36;8.48;;;3.25;;
57233;SDS011;43090;52.604;13.318;2022-07-23T06:02:30;15.05;;;3.45;;
57233;SDS011;43090;52.604;13.318;2022-07-23T06:04:56;10.30;;;3.40;;
57233;SDS011;43090;52.604;13.318;2022-07-23T06:07:23;9.45;;;3.67;;
57233;SDS011;43090;52.604;13.318;2022-07-23T06:09:49;7.30;;;3.72;;
57233;SDS011;43090;52.604;13.318;2022-07-23T06:12:16;6.13;;;3.53;;
57233;SDS011;43090;52.604;13.318;2022-07-23T06:17:09;7.75;;;3.30;;
57233;SDS011;43090;52.604;13.318;2022-07-23T06:19:36;8.90;;;3.38;;
57233;SDS011;43090;52.604;13.318;2022-07-23T06:22:02;8.23;;;3.47;;
57233;SDS011;43090;52.604;13.318;2022-07-23T06:24:29;9.43;;;4.03;;
57233;SDS011;43090;52.604;13.318;2022-07-23T06:26:56;6.80;;;2.95;;
57233;SDS011;43090;52.604;13.318;2022-07-23T06:29:22;10.02;;;3.95;;
57233;SDS011;43090;52.604;13.318;2022-07-23T06:31:52;7.07;;;4.03;;
57233;SDS011;43090;52.604;13.318;2022-07-23T06:34:19;12.43;;;4.35;;
57233;SDS011;43090;52.604;13.318;2022-07-23T06:36:48;8.43;;;4.38;;
57233;SDS011;43090;52.604;13.318;2022-07-23T06:39:17;6.63;;;3.38;;
57233;SDS011;43090;52.604;13.318;2022-07-23T06:44:25;14.98;;;3.67;;
57233;SDS011;43090;52.604;13.318;2022-07-23T06:46:52;11.23;;;4.10;;
57233;SDS011;43090;52.604;13.318;2022-07-23T06:52:39;7.50;;;3.95;;
57233;SDS011;43090;52.604;13.318;2022-07-23T06:55:10;11.00;;;4.22;;
57233;SDS011;43090;52.604;13.318;2022-07-23T06:57:37;8.25;;;3.42;;
57233;SDS011;43090;52.604;13.318;2022-07-23T07:03:10;6.53;;;3.63;;
57233;SDS011;43090;52.604;13.318;2022-07-23T07:05:48;10.20;;;3.47;;
57233;SDS011;43090;52.604;13.318;2022-07-23T07:08:33;10.02;;;4.10;;
57233;SDS011;43090;52.604;13.318;2022-07-23T07:11:42;8.88;;;4.78;;
57233;SDS011;43090;52.604;13.318;2022-07-23T07:14:27;12.05;;;4.53;;
57233;SDS011;43090;52.604;13.318;2022-07-23T07:16:53;8.23;;;4.03;;
57233;SDS011;43090;52.604;13.318;2022-07-23T07:19:20;11.85;;;5.95;;
57233;SDS011;43090;52.604;13.318;2022-07-23T07:21:46;9.93;;;4.88;;
57233;SDS011;43090;52.604;13.318;2022-07-23T07:24:13;10.05;;;4.60;;
57233;SDS011;43090;52.604;13.318;2022-07-23T07:26:39;12.73;;;4.75;;
57233;SDS011;43090;52.604;13.318;2022-07-23T07:29:06;12.27;;;4.43;;
57233;SDS011;43090;52.604;13.318;2022-07-23T07:31:32;9.68;;;4.72;;
57233;SDS011;43090;52.604;13.318;2022-07-23T07:33:59;8.38;;;5.05;;
57233;SDS011;43090;52.604;13.318;2022-07-23T07:36:26;12.52;;;4.85;;
57233;SDS011;43090;52.604;13.318;2022-07-23T07:38:52;8.13;;;4.38;;
57233;SDS011;43090;52.604;13.318;2022-07-23T07:41:19;9.77;;;4.97;;
57233;SDS011;43090;52.604;13.318;2022-07-23T07:43:50;10.10;;;5.00;;
57233;SDS011;43090;52.604;13.318;2022-07-23T07:46:16;11.73;;;4.25;;
57233;SDS011;43090;52.604;13.318;2022-07-23T07:48:43;7.90;;;4.15;;
57233;SDS011;43090;52.604;13.318;2022-07-23T08:41:40;7.93;;;2.80;;
57233;SDS011;43090;52.604;13.318;2022-07-23T08:44:21;6.60;;;2.90;;
57233;SDS011;43090;52.604;13.318;2022-07-23T08:47:04;5.88;;;2.58;;
57233;SDS011;43090;52.604;13.318;2022-07-23T08:49:31;5.45;;;2.42;;
57233;SDS011;43090;52.604;13.318;2022-07-23T08:52:00;7.90;;;2.75;;
57233;SDS011;43090;52.604;13.318;2022-07-23T08:54:36;6.35;;;2.97;;
57233;SDS011;43090;52.604;13.318;2022-07-23T08:57:13;10.98;;;2.95;;
57233;SDS011;43090;52.604;13.318;2022-07-23T08:59:41;9.25;;;2.92;;
57233;SDS011;43090;52.604;13.318;2022-07-23T09:02:13;8.98;;;2.95;;
57233;SDS011;43090;52.604;13.318;2022-07-23T09:04:43;7.60;;;2.20;;
57233;SDS011;43090;52.604;13.318;2022-07-23T09:07:36;6.47;;;2.30;;
57233;SDS011;43090;52.604;13.318;2022-07-23T09:10:08;7.50;;;2.58;;
57233;SDS011;43090;52.604;13.318;2022-07-23T09:12:39;8.50;;;2.88;;
57233;SDS011;43090;52.604;13.318;2022-07-23T09:15:06;12.52;;;3.08;;
57233;SDS011;43090;52.604;13.318;2022-07-23T09:17:38;13.55;;;2.33;;
57233;SDS011;43090;52.604;13.318;2022-07-23T09:20:15;8.05;;;3.70;;
57233;SDS011;43090;52.604;13.318;2022-07-23T09:22:44;7.72;;;2.88;;
57233;SDS011;43090;52.604;13.318;2022-07-23T09:25:13;16.25;;;3.13;;
57233;SDS011;43090;52.604;13.318;2022-07-23T09:27:51;4.38;;;2.78;;
57233;SDS011;43090;52.604;13.318;2022-07-23T09:30:21;10.32;;;3.40;;
57233;SDS011;43090;52.604;13.318;2022-07-23T09:33:08;8.05;;;2.90;;
57233;SDS011;43090;52.604;13.318;2022-07-23T09:38:23;14.07;;;3.78;;
57233;SDS011;43090;52.604;13.318;2022-07-23T09:41:11;12.82;;;3.33;;
57233;SDS011;43090;52.604;13.318;2022-07-23T09:43:42;13.02;;;3.20;;
57233;SDS011;43090;52.604;13.318;2022-07-23T09:48:46;12.33;;;3.13;;
57233;SDS011;43090;52.604;13.318;2022-07-23T09:51:13;11.02;;;3.58;;
57233;SDS011;43090;52.604;13.318;2022-07-23T09:54:05;8.23;;;2.53;;
57233;SDS011;43090;52.604;13.318;2022-07-23T09:56:46;8.68;;;3.05;;
57233;SDS011;43090;52.604;13.318;2022-07-23T09:59:15;6.82;;;3.15;;
57233;SDS011;43090;52.604;13.318;2022-07-23T10:01:44;9.45;;;3.13;;
57233;SDS011;43090;52.604;13.318;2022-07-23T10:04:11;9.52;;;2.75;;
57233;SDS011;43090;52.604;13.318;2022-07-23T10:06:40;7.25;;;3.17;;
57233;SDS011;43090;52.604;13.318;2022-07-23T10:09:09;10.27;;;3.15;;
57233;SDS011;43090;52.604;13.318;2022-07-23T10:11:38;5.68;;;2.67;;
57233;SDS011;43090;52.604;13.318;2022-07-23T10:14:05;8.82;;;3.60;;
57233;SDS011;43090;52.604;13.318;2022-07-23T10:16:32;7.18;;;3.53;;
57233;SDS011;43090;52.604;13.318;2022-07-23T10:27:20;9.57;;;2.60;;
57233;SDS011;43090;52.604;13.318;2022-07-23T10:30:05;6.82;;;2.60;;
57233;SDS011;43090;52.604;13.318;2022-07-23T10:38:21;8.38;;;2.78;;
57233;SDS011;43090;52.604;13.318;2022-07-23T10:41:11;8.43;;;3.53;;
57233;SDS011;43090;52.604;13.318;2022-07-23T10:43:39;8.57;;;3.45;;
57233;SDS011;43090;52.604;13.318;2022-07-23T10:46:24;13.27;;;3.13;;
57233;SDS011;43090;52.604;13.318;2022-07-23T10:49:31;11.70;;;3.90;;
57233;SDS011;43090;52.604;13.318;2022-07-23T10:54:43;6.75;;;2.75;;
57233;SDS011;43090;52.604;13.318;2022-07-23T10:57:16;6.70;;;3.42;;
57233;SDS011;43090;52.604;13.318;2022-07-23T11:02:33;4.72;;;2.70;;
57233;SDS011;43090;52.604;13.318;2022-07-23T11:05:04;4.68;;;2.65;;
57233;SDS011;43090;52.604;13.318;2022-07-23T11:13:30;5.03;;;2.58;;
57233;SDS011;43090;52.604;13.318;2022-07-23T11:34:48;6.57;;;2.97;;
57233;SDS011;43090;52.604;13.318;2022-07-23T11:37:29;10.60;;;2.88;;
57233;SDS011;43090;52.604;13.318;2022-07-23T11:39:59;7.78;;;2.60;;
57233;SDS011;43090;52.604;13.318;2022-07-23T11:42:29;11.35;;;3.28;;
57233;SDS011;43090;52.604;13.318;2022-07-23T11:44:57;5.53;;;2.97;;
57233;SDS011;43090;52.604;13.318;2022-07-23T11:52:19;8.88;;;3.22;;
57233;SDS011;43090;52.604;13.318;2022-07-23T11:55:05;9.32;;;3.03;;
57233;SDS011;43090;52.604;13.318;2022-07-23T11:57:35;10.30;;;3.42;;
57233;SDS011;43090;52.604;13.318;2022-07-23T12:02:48;9.50;;;3.50;;
57233;SDS011;43090;52.604;13.318;2022-07-23T12:05:21;8.60;;;2.95;;
57233;SDS011;43090;52.604;13.318;2022-07-23T12:07:50;10.73;;;3.15;;
57233;SDS011;43090;52.604;13.318;2022-07-23T12:10:20;10.60;;;4.07;;
57233;SDS011;43090;52.604;13.318;2022-07-23T12:12:48;6.40;;;3.03;;
57233;SDS011;43090;52.604;13.318;2022-07-23T12:15:26;8.85;;;2.63;;
57233;SDS011;43090;52.604;13.318;2022-07-23T12:17:59;10.10;;;3.45;;
57233;SDS011;43090;52.604;13.318;2022-07-23T12:20:34;6.90;;;3.08;;
57233;SDS011;43090;52.604;13.318;2022-07-23T12:23:09;5.25;;;2.78;;
57233;SDS011;43090;52.604;13.318;2022-07-23T12:25:47;6.75;;;2.83;;
57233;SDS011;43090;52.604;13.318;2022-07-23T12:28:28;10.27;;;2.97;;
57233;SDS011;43090;52.604;13.318;2022-07-23T12:30:57;6.50;;;2.75;;
57233;SDS011;43090;52.604;13.318;2022-07-23T12:33:31;6.20;;;2.92;;
57233;SDS011;43090;52.604;13.318;2022-07-23T12:39:28;7.75;;;3.08;;
57233;SDS011;43090;52.604;13.318;2022-07-23T12:42:01;7.75;;;2.97;;
57233;SDS011;43090;52.604;13.318;2022-07-23T12:44:28;8.18;;;2.63;;
57233;SDS011;43090;52.604;13.318;2022-07-23T12:47:04;7.13;;;2.90;;
57233;SDS011;43090;52.604;13.318;2022-07-23T12:49:45;8.27;;;2.92;;
57233;SDS011;43090;52.604;13.318;2022-07-23T12:52:21;8.82;;;3.38;;
57233;SDS011;43090;52.604;13.318;2022-07-23T12:54:56;5.03;;;2.70;;
57233;SDS011;43090;52.604;13.318;2022-07-23T12:57:44;9.43;;;2.90;;
57233;SDS011;43090;52.604;13.318;2022-07-23T13:00:14;6.22;;;2.55;;
57233;SDS011;43090;52.604;13.318;2022-07-23T13:02:54;13.32;;;2.53;;
57233;SDS011;43090;52.604;13.318;2022-07-23T13:05:33;7.60;;;2.50;;
57233;SDS011;43090;52.604;13.318;2022-07-23T13:10:33;7.35;;;2.67;;
57233;SDS011;43090;52.604;13.318;2022-07-23T13:19:55;5.45;;;2.38;;
57233;SDS011;43090;52.604;13.318;2022-07-23T13:27:12;6.93;;;2.40;;
57233;SDS011;43090;52.604;13.318;2022-07-23T13:29:51;5.95;;;2.13;;
57233;SDS011;43090;52.604;13.318;2022-07-23T13:32:56;9.32;;;2.00;;
57233;SDS011;43090;52.604;13.318;2022-07-23T13:35:26;4.35;;;2.17;;
57233;SDS011;43090;52.604;13.318;2022-07-23T13:38:00;5.80;;;2.13;;
57233;SDS011;43090;52.604;13.318;2022-07-23T13:40:33;7.03;;;2.15;;
57233;SDS011;43090;52.604;13.318;2022-07-23T13:43:06;5.72;;;2.00;;
57233;SDS011;43090;52.604;13.318;2022-07-23T13:45:37;5.82;;;1.80;;
57233;SDS011;43090;52.604;13.318;2022-07-23T13:48:11;3.80;;;1.92;;
57233;SDS011;43090;52.604;13.318;2022-07-23T13:50:47;5.13;;;2.10;;
57233;SDS011;43090;52.604;13.318;2022-07-23T13:53:16;4.63;;;1.77;;
57233;SDS011;43090;52.604;13.318;2022-07-23T13:55:51;4.47;;;1.75;;
57233;SDS011;43090;52.604;13.318;2022-07-23T13:58:22;8.18;;;2.42;;
57233;SDS011;43090;52.604;13.318;2022-07-23T14:00:50;5.35;;;1.85;;
57233;SDS011;43090;52.604;13.318;2022-07-23T14:03:20;5.43;;;1.92;;
57233;SDS011;43090;52.604;13.318;2022-07-23T14:05:49;8.18;;;1.70;;
57233;SDS011;43090;52.604;13.318;2022-07-23T14:08:17;7.65;;;2.03;;
57233;SDS011;43090;52.604;13.318;2022-07-23T14:10:47;5.10;;;1.70;;
57233;SDS011;43090;52.604;13.318;2022-07-23T14:13:14;2.83;;;1.70;;
57233;SDS011;43090;52.604;13.318;2022-07-23T14:15:42;5.10;;;2.03;;
57233;SDS011;43090;52.604;13.318;2022-07-23T14:18:08;7.32;;;1.70;;
57233;SDS011;43090;52.604;13.318;2022-07-23T14:20:38;5.85;;;1.67;;
57233;SDS011;43090;52.604;13.318;2022-07-23T14:23:10;6.82;;;1.40;;
57233;SDS011;43090;52.604;13.318;2022-07-23T14:25:39;4.03;;;1.48;;
57233;SDS011;43090;52.604;13.318;2022-07-23T14:28:09;9.38;;;1.58;;
57233;SDS011;43090;52.604;13.318;2022-07-23T14:30:45;2.38;;;1.35;;
57233;SDS011;43090;52.604;13.318;2022-07-23T14:41:45;2.60;;;1.85;;
57233;SDS011;43090;52.604;13.318;2022-07-23T14:44:13;2.78;;;1.30;;
57233;SDS011;43090;52.604;13.318;2022-07-23T14:46:50;3.83;;;1.75;;
57233;SDS011;43090;52.604;13.318;2022-07-23T15:32:07;6.15;;;3.50;;
57233;SDS011;43090;52.604;13.318;2022-07-23T15:35:38;6.70;;;3.45;;
57233;SDS011;43090;52.604;13.318;2022-07-23T15:41:25;4.07;;;1.83;;
57233;SDS011;43090;52.604;13.318;2022-07-23T15:43:52;6.10;;;1.70;;
57233;SDS011;43090;52.604;13.318;2022-07-23T15:46:21;3.08;;;1.20;;
57233;SDS011;43090;52.604;13.318;2022-07-23T15:48:52;3.88;;;1.05;;
57233;SDS011;43090;52.604;13.318;2022-07-23T15:51:19;2.10;;;1.20;;
57233;SDS011;43090;52.604;13.318;2022-07-23T15:53:46;4.05;;;2.10;;
57233;SDS011;43090;52.604;13.318;2022-07-23T15:56:14;4.75;;;2.15;;
57233;SDS011;43090;52.604;13.318;2022-07-23T15:58:42;4.35;;;1.38;;
57233;SDS011;43090;52.604;13.318;2022-07-23T16:01:10;4.93;;;1.60;;
57233;SDS011;43090;52.604;13.318;2022-07-23T16:03:38;3.47;;;1.20;;
57233;SDS011;43090;52.604;13.318;2022-07-23T16:06:05;3.53;;;1.20;;
57233;SDS011;43090;52.604;13.318;2022-07-23T16:08:43;3.22;;;1.30;;
57233;SDS011;43090;52.604;13.318;2022-07-23T16:11:10;3.67;;;1.20;;
57233;SDS011;43090;52.604;13.318;2022-07-23T16:13:40;3.40;;;1.20;;
57233;SDS011;43090;52.604;13.318;2022-07-23T16:16:07;10.38;;;1.30;;
57233;SDS011;43090;52.604;13.318;2022-07-23T16:18:35;9.55;;;1.40;;
57233;SDS011;43090;52.604;13.318;2022-07-23T16:21:02;3.30;;;1.30;;
57233;SDS011;43090;52.604;13.318;2022-07-23T16:23:37;6.10;;;1.48;;
57233;SDS011;43090;52.604;13.318;2022-07-23T16:28:36;2.15;;;1.27;;
57233;SDS011;43090;52.604;13.318;2022-07-23T16:31:05;4.43;;;1.95;;
57233;SDS011;43090;52.604;13.318;2022-07-23T16:33:38;7.85;;;2.08;;
57233;SDS011;43090;52.604;13.318;2022-07-23T16:36:06;4.15;;;1.95;;
57233;SDS011;43090;52.604;13.318;2022-07-23T16:38:36;5.43;;;1.42;;
57233;SDS011;43090;52.604;13.318;2022-07-23T17:05:57;7.30;;;1.20;;
57233;SDS011;43090;52.604;13.318;2022-07-23T17:12:17;2.67;;;1.08;;
57233;SDS011;43090;52.604;13.318;2022-07-23T17:14:50;6.50;;;0.90;;
57233;SDS011;43090;52.604;13.318;2022-07-23T17:17:16;3.88;;;1.02;;
57233;SDS011;43090;52.604;13.318;2022-07-23T17:20:17;3.47;;;0.95;;
57233;SDS011;43090;52.604;13.318;2022-07-23T17:22:46;5.10;;;1.08;;
57233;SDS011;43090;52.604;13.318;2022-07-23T17:25:23;1.88;;;0.98;;
57233;SDS011;43090;52.604;13.318;2022-07-23T17:38:07;2.08;;;1.08;;
57233;SDS011;43090;52.604;13.318;2022-07-23T17:44:24;1.77;;;0.75;;
57233;SDS011;43090;52.604;13.318;2022-07-23T17:47:56;2.60;;;0.85;;
57233;SDS011;43090;52.604;13.318;2022-07-23T17:53:37;1.95;;;0.88;;
57233;SDS011;43090;52.604;13.318;2022-07-23T17:56:11;2.75;;;0.88;;
57233;SDS011;43090;52.604;13.318;2022-07-23T18:02:31;1.92;;;0.80;;
57233;SDS011;43090;52.604;13.318;2022-07-23T18:04:59;2.70;;;1.05;;
57233;SDS011;43090;52.604;13.318;2022-07-23T18:07:26;6.00;;;1.58;;
57233;SDS011;43090;52.604;13.318;2022-07-23T18:10:21;1.70;;;1.10;;
57233;SDS011;43090;52.604;13.318;2022-07-23T18:12:48;3.10;;;1.00;;
57233;SDS011;43090;52.604;13.318;2022-07-23T18:15:15;8.75;;;1.45;;
57233;SDS011;43090;52.604;13.318;2022-07-23T18:17:42;4.35;;;1.52;;
57233;SDS011;43090;52.604;13.318;2022-07-23T18:20:09;1.73;;;0.90;;
57233;SDS011;43090;52.604;13.318;2022-07-23T18:22:41;3.47;;;1.30;;
57233;SDS011;43090;52.604;13.318;2022-07-23T18:25:09;3.83;;;1.05;;
57233;SDS011;43090;52.604;13.318;2022-07-23T18:27:36;2.80;;;0.90;;
57233;SDS011;43090;52.604;13.318;2022-07-23T18:30:13;6.55;;;0.70;;
57233;SDS011;43090;52.604;13.318;2022-07-23T18:32:40;2.40;;;0.75;;
57233;SDS011;43090;52.604;13.318;2022-07-23T18:37:36;5.22;;;0.80;;
57233;SDS011;43090;52.604;13.318;2022-07-23T18:40:09;3.25;;;1.10;;
57233;SDS011;43090;52.604;13.318;2022-07-23T18:42:36;1.60;;;0.57;;
57233;SDS011;43090;52.604;13.318;2022-07-23T18:45:13;1.17;;;0.85;;
57233;SDS011;43090;52.604;13.318;2022-07-23T18:50:46;2.05;;;0.73;;
57233;SDS011;43090;52.604;13.318;2022-07-23T18:53:13;6.68;;;1.00;;
57233;SDS011;43090;52.604;13.318;2022-07-23T18:58:12;6.30;;;1.25;;
57233;SDS011;43090;52.604;13.318;2022-07-23T19:00:42;3.33;;;1.65;;
57233;SDS011;43090;52.604;13.318;2022-07-23T19:03:08;5.10;;;1.85;;
57233;SDS011;43090;52.604;13.318;2022-07-23T19:05:35;4.22;;;1.65;;
57233;SDS011;43090;52.604;13.318;2022-07-23T19:08:04;3.08;;;1.35;;
57233;SDS011;43090;52.604;13.318;2022-07-23T19:10:48;2.67;;;1.45;;
57233;SDS011;43090;52.604;13.318;2022-07-23T19:20:27;2.78;;;1.17;;
57233;SDS011;43090;52.604;13.318;2022-07-23T19:22:53;1.70;;;1.00;;
57233;SDS011;43090;52.604;13.318;2022-07-23T19:27:47;9.75;;;1.00;;
57233;SDS011;43090;52.604;13.318;2022-07-23T20:08:35;2.60;;;0.70;;
57233;SDS011;43090;52.604;13.318;2022-07-23T20:16:01;1.08;;;0.70;;
57233;SDS011;43090;52.604;13.318;2022-07-23T20:23:47;4.50;;;1.00;;